createdAt,value
2023-03-18T00:01:16.762Z,2.87
2023-03-18T00:03:43.987Z,2.87
2023-03-18T00:06:18.365Z,2.87
2023-03-18T00:08:48.266Z,2.87
2023-03-18T00:11:19.873Z,2.90
2023-03-18T00:13:48.992Z,2.80
2023-03-18T00:16:16.707Z,2.80
2023-03-18T00:18:44.515Z,2.80
2023-03-18T00:21:12.336Z,2.80
2023-03-18T00:23:40.088Z,2.87
2023-03-18T00:26:08.846Z,2.80
2023-03-18T00:28:37.291Z,2.80
2023-03-18T00:31:10.963Z,2.80
2023-03-18T00:33:40.675Z,2.80
2023-03-18T00:36:13.631Z,2.80
2023-03-18T00:38:46.821Z,2.70
2023-03-18T00:41:15.839Z,2.77
2023-03-18T00:43:52.059Z,2.80
2023-03-18T00:46:26.207Z,2.70
2023-03-18T00:48:59.802Z,2.83
2023-03-18T00:51:34.951Z,2.80
2023-03-18T00:54:08.023Z,2.77
2023-03-18T00:56:39.916Z,2.73
2023-03-18T00:59:08.718Z,2.70
2023-03-18T01:01:37.138Z,2.77
2023-03-18T01:04:04.382Z,2.80
2023-03-18T01:06:35.029Z,2.80
2023-03-18T01:09:05.101Z,2.80
2023-03-18T01:11:33.272Z,2.80
2023-03-18T01:14:01.131Z,2.70
2023-03-18T01:16:29.670Z,2.80
2023-03-18T01:18:57.344Z,2.80
2023-03-18T01:21:25.423Z,2.80
2023-03-18T01:23:56.652Z,2.80
2023-03-18T01:26:26.000Z,2.80
2023-03-18T01:28:54.681Z,2.80
2023-03-18T01:31:21.888Z,2.83
2023-03-18T01:33:48.974Z,2.80
2023-03-18T01:36:17.474Z,2.80
2023-03-18T01:38:49.276Z,2.77
2023-03-18T01:41:17.354Z,2.70
2023-03-18T01:43:44.931Z,2.80
2023-03-18T01:46:42.719Z,2.73
2023-03-18T01:49:17.458Z,2.80
2023-03-18T01:51:54.048Z,2.80
2023-03-18T01:54:24.674Z,2.90
2023-03-18T01:56:53.811Z,2.87
2023-03-18T01:59:26.339Z,2.77
2023-03-18T02:02:03.304Z,2.87
2023-03-18T02:04:51.341Z,2.80
2023-03-18T02:07:26.245Z,2.83
2023-03-18T02:09:59.147Z,2.83
2023-03-18T02:12:34.384Z,2.87
2023-03-18T02:15:10.367Z,2.90
2023-03-18T02:17:46.757Z,2.90
2023-03-18T02:20:48.816Z,2.80
2023-03-18T02:24:19.225Z,2.90
2023-03-18T02:27:27.881Z,2.80
2023-03-18T02:30:07.053Z,2.83
2023-03-18T02:32:41.256Z,2.90
2023-03-18T02:35:12.063Z,2.83
2023-03-18T02:37:40.696Z,2.83
2023-03-18T02:40:28.965Z,2.90
2023-03-18T02:42:57.289Z,2.87
2023-03-18T02:45:45.873Z,2.90
2023-03-18T02:48:21.339Z,2.90
2023-03-18T02:50:50.128Z,2.87
2023-03-18T02:53:17.433Z,2.87
2023-03-18T02:55:45.457Z,2.90
2023-03-18T02:58:13.033Z,2.83
2023-03-18T03:00:41.320Z,2.90
2023-03-18T03:03:08.433Z,2.90
2023-03-18T03:05:35.991Z,2.90
2023-03-18T03:08:03.078Z,2.90
2023-03-18T03:10:33.679Z,2.87
2023-03-18T03:13:01.524Z,2.90
2023-03-18T03:15:30.358Z,2.90
2023-03-18T03:17:59.901Z,2.90
2023-03-18T03:20:27.420Z,2.93
2023-03-18T03:22:55.057Z,2.87
2023-03-18T03:25:22.525Z,2.90
2023-03-18T03:27:50.169Z,2.80
2023-03-18T03:30:18.477Z,2.90
2023-03-18T03:32:46.490Z,2.87
2023-03-18T03:35:20.981Z,2.83
2023-03-18T03:37:48.221Z,2.90
2023-03-18T03:40:20.444Z,2.83
2023-03-18T03:42:48.944Z,2.90
2023-03-18T03:45:19.072Z,2.87
2023-03-18T03:47:47.648Z,2.90
2023-03-18T03:50:17.822Z,2.87
2023-03-18T03:52:45.986Z,2.90
2023-03-18T03:55:18.137Z,2.80
2023-03-18T03:57:46.461Z,2.90
2023-03-18T04:00:20.510Z,2.90
2023-03-18T04:02:51.905Z,2.90
2023-03-18T04:05:24.397Z,2.80
2023-03-18T04:07:53.007Z,2.90
2023-03-18T04:10:28.658Z,2.87
2023-03-18T04:12:56.119Z,2.90
2023-03-18T04:15:23.556Z,2.83
2023-03-18T04:17:54.561Z,2.90
2023-03-18T04:20:22.429Z,2.90
2023-03-18T04:22:50.184Z,2.90
2023-03-18T04:25:19.935Z,2.90
2023-03-18T04:27:55.019Z,2.83
2023-03-18T04:30:23.348Z,2.90
2023-03-18T04:33:03.590Z,2.90
2023-03-18T04:35:32.157Z,2.87
2023-03-18T04:37:59.812Z,2.90
2023-03-18T04:40:28.544Z,2.90
2023-03-18T04:42:56.436Z,2.83
2023-03-18T04:45:26.062Z,2.80
2023-03-18T04:47:56.993Z,2.90
2023-03-18T04:50:27.764Z,2.90
2023-03-18T04:52:55.021Z,2.80
2023-03-18T04:55:26.580Z,2.90
2023-03-18T04:57:54.455Z,2.83
2023-03-18T05:00:24.265Z,2.83
2023-03-18T05:02:58.429Z,2.80
2023-03-18T05:05:27.086Z,2.80
2023-03-18T05:07:54.903Z,2.80
2023-03-18T05:10:23.084Z,2.83
2023-03-18T05:12:51.654Z,2.80
2023-03-18T05:15:27.658Z,2.83
2023-03-18T05:17:58.480Z,2.80
2023-03-18T05:20:26.433Z,2.80
2023-03-18T05:22:54.496Z,2.80
2023-03-18T05:25:49.816Z,2.83
2023-03-18T05:28:18.728Z,2.80
2023-03-18T05:31:03.544Z,2.87
2023-03-18T05:33:33.635Z,2.80
2023-03-18T05:36:01.733Z,2.90
2023-03-18T05:38:34.896Z,2.80
2023-03-18T05:41:03.401Z,2.90
2023-03-18T05:43:38.503Z,2.80
2023-03-18T05:46:06.196Z,2.80
2023-03-18T05:48:47.252Z,2.90
2023-03-18T05:51:15.342Z,2.80
2023-03-18T05:53:42.865Z,2.87
2023-03-18T05:56:22.363Z,2.80
2023-03-18T05:58:53.120Z,2.93
2023-03-18T06:01:30.719Z,2.77
2023-03-18T06:03:59.959Z,2.77
2023-03-18T06:06:27.634Z,2.80
2023-03-18T06:08:56.167Z,2.80
2023-03-18T06:11:24.692Z,2.80
2023-03-18T06:13:54.352Z,2.70
2023-03-18T06:16:23.130Z,2.80
2023-03-18T06:18:53.523Z,2.80
2023-03-18T06:21:21.052Z,2.80
2023-03-18T06:23:49.539Z,2.77
2023-03-18T06:26:17.140Z,2.70
2023-03-18T06:28:47.991Z,2.70
2023-03-18T06:31:17.628Z,2.70
2023-03-18T06:33:45.212Z,2.70
2023-03-18T06:36:16.528Z,2.73
2023-03-18T06:38:47.736Z,2.77
2023-03-18T06:41:16.191Z,2.73
2023-03-18T06:43:58.392Z,2.73
2023-03-18T06:46:25.985Z,2.70
2023-03-18T06:48:54.414Z,2.70
2023-03-18T06:51:25.718Z,2.67
2023-03-18T06:53:54.512Z,2.70
2023-03-18T06:56:23.598Z,2.70
2023-03-18T06:59:00.668Z,2.73
2023-03-18T07:01:30.369Z,2.67
2023-03-18T07:04:00.495Z,2.70
2023-03-18T07:06:30.517Z,2.70
2023-03-18T07:08:59.434Z,2.77
2023-03-18T07:11:27.799Z,2.63
2023-03-18T07:13:56.288Z,2.70
2023-03-18T07:16:32.653Z,2.67
2023-03-18T07:19:00.228Z,2.60
2023-03-18T07:21:29.266Z,2.63
2023-03-18T07:23:56.863Z,2.67
2023-03-18T07:26:26.312Z,2.63
2023-03-18T07:28:53.818Z,2.60
2023-03-18T07:31:21.409Z,2.67
2023-03-18T07:33:48.867Z,2.60
2023-03-18T07:36:16.174Z,2.50
2023-03-18T07:38:43.755Z,2.60
2023-03-18T07:41:11.217Z,2.60
2023-03-18T07:43:39.967Z,2.50
2023-03-18T07:46:08.019Z,2.57
2023-03-18T07:48:35.539Z,2.57
2023-03-18T07:51:03.408Z,2.57
2023-03-18T07:53:30.853Z,2.60
2023-03-18T07:55:58.323Z,2.50
2023-03-18T07:58:25.850Z,2.50
2023-03-18T08:00:53.955Z,2.57
2023-03-18T08:03:21.463Z,2.53
2023-03-18T08:05:49.711Z,2.57
2023-03-18T08:08:17.578Z,2.53
2023-03-18T08:10:45.021Z,2.47
2023-03-18T08:13:12.949Z,2.50
2023-03-18T08:15:40.987Z,2.50
2023-03-18T08:18:09.454Z,2.43
2023-03-18T08:20:38.137Z,2.50
2023-03-18T09:14:14.940Z,2.22
2023-03-18T09:16:42.364Z,2.10
2023-03-18T09:19:09.774Z,2.10
2023-03-18T09:21:37.563Z,2.10
2023-03-18T09:24:07.081Z,2.20
2023-03-18T09:26:34.938Z,2.20
2023-03-18T09:29:05.201Z,2.00
2023-03-18T09:31:33.075Z,2.00
2023-03-18T09:34:00.808Z,2.17
2023-03-18T09:36:28.445Z,2.43
2023-03-18T09:38:56.002Z,2.67
2023-03-18T09:41:54.672Z,2.70
2023-03-18T09:44:30.251Z,2.17
2023-03-18T09:47:16.277Z,2.10
2023-03-18T09:50:13.853Z,2.27
2023-03-18T09:52:54.276Z,2.17
2023-03-18T09:55:44.025Z,1.80
2023-03-18T09:58:46.321Z,2.20
2023-03-18T10:01:15.662Z,1.80
2023-03-18T10:03:54.672Z,1.70
2023-03-18T10:06:24.588Z,1.70
2023-03-18T10:09:01.151Z,1.80
2023-03-18T10:11:46.149Z,1.90
2023-03-18T10:14:42.230Z,1.90
2023-03-18T10:17:19.102Z,1.80
2023-03-18T10:20:00.338Z,1.87
2023-03-18T10:22:45.426Z,1.90
2023-03-18T10:25:35.972Z,1.87
2023-03-18T10:28:49.083Z,1.93
2023-03-18T10:31:53.215Z,1.70
2023-03-18T10:34:27.762Z,1.90
2023-03-18T10:37:39.064Z,2.30
2023-03-18T10:40:15.808Z,2.30
2023-03-18T10:42:44.100Z,1.80
2023-03-18T10:45:26.002Z,1.40
2023-03-18T10:48:08.808Z,1.40
2023-03-18T10:50:54.460Z,1.50
2023-03-18T10:53:34.679Z,1.30
2023-03-18T10:56:12.776Z,1.50
2023-03-18T10:58:42.303Z,1.80
2023-03-18T11:01:17.119Z,1.70
2023-03-18T11:03:50.532Z,1.60
2023-03-18T11:06:45.689Z,1.60
2023-03-18T11:09:20.415Z,1.40
2023-03-18T11:11:50.840Z,1.40
2023-03-18T11:14:28.794Z,1.50
2023-03-18T11:17:00.568Z,1.40
2023-03-18T11:19:41.276Z,1.40
2023-03-18T11:22:24.682Z,1.30
2023-03-18T11:25:11.419Z,1.30
2023-03-18T11:27:47.036Z,1.30
2023-03-18T11:30:34.360Z,1.40
2023-03-18T11:33:12.549Z,1.40
2023-03-18T11:36:02.458Z,1.30
2023-03-18T11:38:34.175Z,1.30
2023-03-18T11:41:11.639Z,1.60
2023-03-18T11:43:54.777Z,1.80
2023-03-18T11:46:24.453Z,1.80
2023-03-18T11:48:52.087Z,1.50
2023-03-18T11:51:32.362Z,1.80
2023-03-18T11:54:44.942Z,1.40
2023-03-18T11:57:32.228Z,1.73
2023-03-18T12:00:13.231Z,1.87
2023-03-18T12:03:18.886Z,1.80
2023-03-18T12:06:22.702Z,1.50
2023-03-18T12:09:19.255Z,1.57
2023-03-18T12:12:15.576Z,1.60
2023-03-18T12:15:23.175Z,1.67
2023-03-18T12:18:12.035Z,2.13
2023-03-18T12:20:53.268Z,2.17
2023-03-18T12:23:45.810Z,2.10
2023-03-18T12:26:55.508Z,1.60
2023-03-18T12:30:05.264Z,1.50
2023-03-18T12:32:49.764Z,1.83
2023-03-18T12:35:33.540Z,1.30
2023-03-18T12:38:35.652Z,1.40
2023-03-18T12:41:19.264Z,1.23
2023-03-18T12:44:04.577Z,1.20
2023-03-18T12:46:47.611Z,1.30
2023-03-18T12:49:24.299Z,1.30
2023-03-18T12:52:09.498Z,1.20
2023-03-18T12:54:45.678Z,1.20
2023-03-18T12:57:31.949Z,1.33
2023-03-18T13:00:10.306Z,1.50
2023-03-18T13:03:05.495Z,1.40
2023-03-18T13:05:52.336Z,1.47
2023-03-18T13:08:44.556Z,1.97
2023-03-18T13:11:34.163Z,1.63
2023-03-18T13:14:29.948Z,1.67
2023-03-18T13:17:00.226Z,1.83
2023-03-18T13:19:28.100Z,2.43
2023-03-18T13:22:53.320Z,2.20
2023-03-18T13:25:51.815Z,2.17
2023-03-18T13:29:21.527Z,2.27
2023-03-18T13:32:04.627Z,3.23
2023-03-18T13:35:10.417Z,2.83
2023-03-18T13:38:17.225Z,1.90
2023-03-18T13:41:32.143Z,2.80
2023-03-18T13:44:06.956Z,2.77
2023-03-18T13:46:35.122Z,2.43
2023-03-18T13:49:03.925Z,2.00
2023-03-18T13:51:31.973Z,1.43
2023-03-18T13:54:06.672Z,1.53
2023-03-18T13:56:49.092Z,1.57
2023-03-18T13:59:34.953Z,1.40
2023-03-18T14:02:39.702Z,1.40
2023-03-18T14:05:32.327Z,1.60
2023-03-18T14:08:05.782Z,1.47
2023-03-18T14:10:33.186Z,1.50
2023-03-18T14:13:34.720Z,1.53
2023-03-18T14:16:10.731Z,1.50
2023-03-18T14:18:38.628Z,1.50
2023-03-18T14:21:23.579Z,1.47
2023-03-18T14:24:15.997Z,1.43
2023-03-18T14:26:58.687Z,1.40
2023-03-18T14:29:31.037Z,1.30
2023-03-18T14:32:00.946Z,1.50
2023-03-18T14:34:33.570Z,1.40
2023-03-18T14:37:17.755Z,1.33
2023-03-18T14:39:47.912Z,1.40
2023-03-18T14:42:48.750Z,1.40
2023-03-18T14:45:37.372Z,1.40
2023-03-18T14:48:29.351Z,1.60
2023-03-18T14:51:02.577Z,1.50
2023-03-18T14:54:07.444Z,1.50
2023-03-18T14:56:54.306Z,1.60
2023-03-18T14:59:25.827Z,1.47
2023-03-18T15:01:55.321Z,1.57
2023-03-18T15:04:28.696Z,1.70
2023-03-18T15:07:05.365Z,2.10
2023-03-18T15:09:35.778Z,2.37
2023-03-18T15:12:19.230Z,2.53
2023-03-18T15:14:49.771Z,2.70
2023-03-18T15:17:17.629Z,2.30
2023-03-18T15:19:47.300Z,2.20
2023-03-18T15:22:26.140Z,2.10
2023-03-18T15:25:00.322Z,2.10
2023-03-18T15:27:35.821Z,2.20
2023-03-18T15:30:06.386Z,2.20
2023-03-18T15:33:14.885Z,2.33
2023-03-18T15:35:46.014Z,2.40
2023-03-18T15:38:21.858Z,2.40
2023-03-18T15:40:53.304Z,2.47
2023-03-18T15:43:44.900Z,2.40
2023-03-18T15:46:32.544Z,2.60
2023-03-18T15:49:05.327Z,2.60
2023-03-18T15:51:44.835Z,2.70
2023-03-18T15:54:27.633Z,2.60
2023-03-18T15:56:59.271Z,2.60
2023-03-18T15:59:32.555Z,2.53
2023-03-18T16:02:01.982Z,2.40
2023-03-18T16:04:35.325Z,2.50
2023-03-18T16:07:04.760Z,2.63
2023-03-18T16:09:34.694Z,2.53
2023-03-18T16:12:23.918Z,2.47
2023-03-18T16:14:54.466Z,2.53
2023-03-18T16:17:23.881Z,2.40
2023-03-18T16:19:55.037Z,2.60
2023-03-18T16:22:23.095Z,2.43
2023-03-18T16:24:50.490Z,2.30
2023-03-18T16:27:41.013Z,2.33
2023-03-18T16:30:22.466Z,2.50
2023-03-18T16:32:50.982Z,2.50
2023-03-18T16:35:24.405Z,2.50
2023-03-18T16:37:52.096Z,2.30
2023-03-18T16:40:27.030Z,2.20
2023-03-18T16:42:55.330Z,2.23
2023-03-18T16:45:30.390Z,2.30
2023-03-18T16:48:03.792Z,2.30
2023-03-18T16:50:37.672Z,2.30
2023-03-18T16:53:27.797Z,2.43
2023-03-18T16:56:16.528Z,2.50
2023-03-18T16:58:45.292Z,2.40
2023-03-18T17:01:16.926Z,2.40
2023-03-18T17:03:44.353Z,3.73
2023-03-18T17:06:13.159Z,2.50
2023-03-18T17:08:40.185Z,2.53
2023-03-18T17:11:07.982Z,2.70
2023-03-18T17:13:38.248Z,2.40
2023-03-18T17:16:06.035Z,2.60
2023-03-18T17:18:33.574Z,2.50
2023-03-18T17:21:03.250Z,2.50
2023-03-18T17:23:30.328Z,2.57
2023-03-18T17:26:00.459Z,2.50
2023-03-18T17:28:50.023Z,2.50
2023-03-18T17:31:17.404Z,2.43
2023-03-18T17:33:44.416Z,2.57
2023-03-18T17:36:12.329Z,2.50
2023-03-18T17:38:39.367Z,2.47
2023-03-18T17:41:19.457Z,2.70
2023-03-18T17:43:47.091Z,2.60
2023-03-18T17:46:14.604Z,2.70
2023-03-18T17:48:41.725Z,2.73
2023-03-18T17:51:19.363Z,2.90
2023-03-18T17:53:59.180Z,2.97
2023-03-18T17:56:27.733Z,2.80
2023-03-18T17:58:55.133Z,2.90
2023-03-18T18:01:29.923Z,2.97
2023-03-18T18:03:59.830Z,2.70
2023-03-18T18:06:29.774Z,2.70
2023-03-18T18:08:59.984Z,2.40
2023-03-18T18:11:48.869Z,2.50
2023-03-18T18:14:28.823Z,2.43
2023-03-18T18:16:56.940Z,2.40
2023-03-18T18:19:24.343Z,2.50
2023-03-18T18:21:52.915Z,2.43
2023-03-18T18:24:29.138Z,2.40
2023-03-18T18:26:56.800Z,2.40
2023-03-18T18:29:28.147Z,2.47
2023-03-18T18:31:55.660Z,2.50
2023-03-18T18:34:22.867Z,2.50
2023-03-18T18:36:50.945Z,2.40
2023-03-18T18:39:18.340Z,2.50
2023-03-18T18:41:46.457Z,2.40
2023-03-18T18:44:14.610Z,2.50
2023-03-18T18:46:42.176Z,2.47
2023-03-18T18:49:24.498Z,2.50
2023-03-18T18:51:54.984Z,2.50
2023-03-18T18:54:23.994Z,2.53
2023-03-18T18:56:52.088Z,2.50
2023-03-18T18:59:28.545Z,2.60
2023-03-18T19:01:56.747Z,2.50
2023-03-18T19:04:24.612Z,2.50
2023-03-18T19:06:52.714Z,2.53
2023-03-18T19:09:26.119Z,2.60
2023-03-18T19:11:56.072Z,2.53
2023-03-18T19:14:27.607Z,2.60
2023-03-18T19:17:03.405Z,2.60
2023-03-18T19:19:36.708Z,2.57
2023-03-18T19:22:04.334Z,2.57
2023-03-18T19:24:36.910Z,2.63
2023-03-18T19:27:23.776Z,2.60
2023-03-18T19:29:54.618Z,2.67
2023-03-18T19:32:24.137Z,2.70
2023-03-18T19:34:53.793Z,2.60
2023-03-18T19:37:29.111Z,2.60
2023-03-18T19:39:57.762Z,2.60
2023-03-18T19:42:25.895Z,2.77
2023-03-18T19:44:53.353Z,2.60
2023-03-18T19:47:28.451Z,2.60
2023-03-18T19:49:56.073Z,2.70
2023-03-18T19:52:25.431Z,2.70
2023-03-18T19:54:54.668Z,2.70
2023-03-18T19:57:28.850Z,2.60
2023-03-18T19:59:59.561Z,2.73
2023-03-18T20:02:34.713Z,2.70
2023-03-18T20:05:16.444Z,2.77
2023-03-18T20:07:43.517Z,2.77
2023-03-18T20:10:12.990Z,2.60
2023-03-18T20:12:47.107Z,2.60
2023-03-18T20:15:22.850Z,2.70
2023-03-18T20:17:52.741Z,2.80
2023-03-18T20:20:27.583Z,2.70
2023-03-18T20:23:02.640Z,2.70
2023-03-18T20:25:42.117Z,2.70
2023-03-18T20:28:23.242Z,2.63
2023-03-18T20:30:53.855Z,2.70
2023-03-18T20:33:22.503Z,2.60
2023-03-18T20:35:54.671Z,2.70
2023-03-18T20:38:39.618Z,2.70
2023-03-18T20:41:07.654Z,2.63
2023-03-18T20:43:35.274Z,2.60
2023-03-18T20:46:02.484Z,2.60
2023-03-18T20:48:30.306Z,2.60
2023-03-18T20:50:58.189Z,2.60
2023-03-18T20:53:28.857Z,2.50
2023-03-18T20:55:56.365Z,2.60
2023-03-18T20:58:27.486Z,2.60
2023-03-18T21:00:55.333Z,2.50
2023-03-18T21:03:35.181Z,2.60
2023-03-18T21:06:03.702Z,2.60
2023-03-18T21:08:32.937Z,2.53
2023-03-18T21:11:02.324Z,2.60
2023-03-18T21:13:38.767Z,2.63
2023-03-18T21:16:15.312Z,2.70
2023-03-18T21:18:45.703Z,2.67
2023-03-18T21:21:38.134Z,2.67
2023-03-18T21:24:27.487Z,2.73
2023-03-18T21:27:04.094Z,2.60
2023-03-18T21:29:31.541Z,2.70
2023-03-18T21:31:59.854Z,2.70
2023-03-18T21:34:27.629Z,2.63
2023-03-18T21:36:54.562Z,2.77
2023-03-18T21:39:22.345Z,2.67
2023-03-18T21:41:49.813Z,2.77
2023-03-18T21:44:17.274Z,2.70
2023-03-18T21:46:44.680Z,2.73
2023-03-18T21:49:12.238Z,2.80
2023-03-18T21:51:40.434Z,2.70
2023-03-18T21:54:18.919Z,2.67
2023-03-18T21:56:46.403Z,2.67
2023-03-18T21:59:16.432Z,2.70
2023-03-18T22:01:47.552Z,2.60
2023-03-18T22:04:14.730Z,2.67
2023-03-18T22:06:42.146Z,2.70
2023-03-18T22:09:09.683Z,2.73
2023-03-18T22:11:36.777Z,2.67
2023-03-18T22:14:03.796Z,2.63
2023-03-18T22:16:31.381Z,2.70
2023-03-18T22:18:58.417Z,2.67
2023-03-18T22:21:28.285Z,2.63
2023-03-18T22:23:58.080Z,2.70
2023-03-18T22:26:25.777Z,2.70
2023-03-18T22:28:53.195Z,2.70
2023-03-18T22:31:25.953Z,2.77
2023-03-18T22:33:54.072Z,2.70
2023-03-18T22:36:21.925Z,2.70
2023-03-18T22:38:49.751Z,2.67
2023-03-18T22:41:25.077Z,2.67
2023-03-18T22:43:53.224Z,2.60
2023-03-18T22:46:20.217Z,2.60
2023-03-18T22:48:47.293Z,2.70
2023-03-18T22:51:34.977Z,2.63
2023-03-18T22:54:02.499Z,2.67
2023-03-18T22:56:32.048Z,2.70
2023-03-18T22:58:59.561Z,2.70
2023-03-18T23:01:30.925Z,2.60
2023-03-18T23:03:58.742Z,2.60
2023-03-18T23:06:27.045Z,2.60
2023-03-18T23:08:54.124Z,2.70
2023-03-18T23:11:21.647Z,2.63
2023-03-18T23:13:50.553Z,2.60
2023-03-18T23:16:21.800Z,2.67
2023-03-18T23:18:50.806Z,2.50
2023-03-18T23:21:22.551Z,2.60
2023-03-18T23:23:50.444Z,2.60
2023-03-18T23:26:17.991Z,2.67
2023-03-18T23:28:45.930Z,2.60
2023-03-18T23:31:15.615Z,2.60
2023-03-18T23:33:43.473Z,2.60
2023-03-18T23:36:11.640Z,2.60
2023-03-18T23:38:39.243Z,2.77
2023-03-18T23:41:07.137Z,2.70
2023-03-18T23:43:34.677Z,2.67
2023-03-18T23:46:03.331Z,2.60
2023-03-18T23:48:31.283Z,2.70
2023-03-18T23:50:58.306Z,2.70
2023-03-18T23:53:26.069Z,2.70
2023-03-18T23:55:53.027Z,2.70
2023-03-18T23:58:20.178Z,2.70
